Goodwick, United Kingdom
Current Conditions -  °F | °C
As of 5:50 AM on Wednesday 22 Oct 2014 (Local Time) from EGOP Reporting Station
Broken Clouds Broken Clouds  
Wind Chill: 52°   Ceiling: 8000
Heat Index: 52°   Visibility: 6mi
Dew Point: 45°   Wind: 18mph
Humidity: 76%   Direction: 290°WNW
Pressure: 30.33"   Gusts: NA
Location:  52°N, 5°W
Report Text: EGOP 220450Z AUTO 29016KT 9999 // FEW050/// BKN080/// 11/07 Q1027
Loading
Personal Weather Stations






























Interactive Weather Map
Tropical Storm Tracking
New forecast layout! Learn more

10-Day Weather Forecast

Advertisements
Track Severe Weather on mobile